Freeman, Indiana
Current Conditions -  °F | °C
As of 4:53 AM on Friday 31 Oct 2014 (Local Time) from KBMG Reporting Station
Few Clouds Few Clouds  
Wind Chill: 44°   Ceiling: Unl
Heat Index: 44°   Visibility: 10mi
Dew Point: 41°   Wind: 0mph
Humidity: 89%   Direction: NA
Pressure: 30.01"   Gusts: NA
Location:  39.3008°N, 86.8112°W
Report Text: KBMG 310853Z AUTO 00000KT 10SM FEW050 07/05 A3001 RMK AO2 SLP161 T00670050 56010
Loading
Personal Weather Stations






























Interactive Weather Map
Tropical Storm Tracking
New forecast layout! Learn more

10-Day Weather Forecast

Advertisements
Track Severe Weather on mobile